createdAt,value
2023-04-21T00:01:14.093Z,3.63
2023-04-21T00:05:24.984Z,3.53
2023-04-21T00:09:34.073Z,3.20
2023-04-21T00:13:43.041Z,3.90
2023-04-21T00:17:52.313Z,3.97
2023-04-21T00:22:04.773Z,3.53
2023-04-21T00:26:13.812Z,4.17
2023-04-21T00:30:23.154Z,3.80
2023-04-21T00:34:32.154Z,4.20
2023-04-21T00:38:42.792Z,3.77
2023-04-21T00:42:51.823Z,4.00
2023-04-21T00:47:01.112Z,4.53
2023-04-21T00:51:10.196Z,4.17
2023-04-21T00:55:20.808Z,4.37
2023-04-21T00:59:29.934Z,4.43
2023-04-21T01:03:39.647Z,4.00
2023-04-21T01:07:49.138Z,4.80
2023-04-21T01:12:06.857Z,4.17
2023-04-21T01:16:19.430Z,4.37
2023-04-21T01:20:29.993Z,4.13
2023-04-21T01:24:43.108Z,4.00
2023-04-21T01:28:52.368Z,4.00
2023-04-21T01:33:01.691Z,4.43
2023-04-21T01:37:11.192Z,4.20
2023-04-21T01:41:21.772Z,3.80
2023-04-21T01:45:30.800Z,4.00
2023-04-21T01:49:39.874Z,4.30
2023-04-21T01:53:48.856Z,3.60
2023-04-21T01:57:59.754Z,3.87
2023-04-21T02:02:08.902Z,3.80
2023-04-21T02:06:18.142Z,4.03
2023-04-21T02:10:27.264Z,4.07
2023-04-21T02:14:39.127Z,3.33
2023-04-21T02:18:48.849Z,3.50
2023-04-21T02:22:58.074Z,3.43
2023-04-21T02:27:07.362Z,3.97
2023-04-21T02:31:17.975Z,4.27
2023-04-21T02:35:27.487Z,4.03
2023-04-21T02:39:36.647Z,4.07
2023-04-21T02:43:45.660Z,3.83
2023-04-21T02:47:56.245Z,4.03
2023-04-21T02:52:05.261Z,4.30
2023-04-21T02:56:14.216Z,4.10
2023-04-21T03:00:23.200Z,4.80
2023-04-21T03:04:34.510Z,4.53
2023-04-21T03:08:43.573Z,4.40
2023-04-21T03:12:52.543Z,4.53
2023-04-21T03:17:01.497Z,4.53
2023-04-21T03:21:11.910Z,4.70
2023-04-21T03:25:20.848Z,5.00
2023-04-21T03:29:29.769Z,4.60
2023-04-21T03:33:38.709Z,4.77
2023-04-21T03:37:49.976Z,4.80
2023-04-21T03:41:58.958Z,4.50
2023-04-21T03:46:07.930Z,4.47
2023-04-21T03:50:17.477Z,4.83
2023-04-21T03:54:28.009Z,4.70
2023-04-21T03:58:37.513Z,5.90
2023-04-21T04:02:46.571Z,5.00
2023-04-21T04:06:55.565Z,5.70
2023-04-21T04:11:06.038Z,5.07
2023-04-21T04:15:15.407Z,5.67
2023-04-21T04:19:24.438Z,5.50
2023-04-21T04:23:33.701Z,5.67
2023-04-21T04:27:44.581Z,6.03
2023-04-21T04:31:53.846Z,5.10
2023-04-21T04:36:02.873Z,5.33
2023-04-21T04:40:12.506Z,5.00
2023-04-21T04:44:23.915Z,5.23
2023-04-21T04:48:32.960Z,5.60
2023-04-21T04:52:41.921Z,5.57
2023-04-21T04:56:50.894Z,5.00
2023-04-21T05:01:01.327Z,5.17
2023-04-21T05:05:10.532Z,5.37
2023-04-21T05:09:19.601Z,5.60
2023-04-21T05:13:28.725Z,5.57
2023-04-21T05:17:39.242Z,5.10
2023-04-21T05:21:48.426Z,5.20
2023-04-21T05:25:57.368Z,5.30
2023-04-21T05:30:07.053Z,4.70
2023-04-21T05:34:17.642Z,4.70
2023-04-21T05:38:27.660Z,5.03
2023-04-21T05:42:36.753Z,5.40
2023-04-21T05:46:45.750Z,4.97
2023-04-21T05:50:56.243Z,5.13
2023-04-21T05:55:05.579Z,5.80
2023-04-21T05:59:15.494Z,5.43
2023-04-21T06:03:24.584Z,5.73
2023-04-21T06:07:37.396Z,5.70
2023-04-21T06:11:46.250Z,5.90
2023-04-21T06:15:55.108Z,6.97
2023-04-21T06:20:04.468Z,7.30
2023-04-21T06:24:14.872Z,7.07
2023-04-21T06:28:23.812Z,8.07
2023-04-21T06:32:34.889Z,8.10
2023-04-21T06:36:44.026Z,7.77
2023-04-21T06:40:54.344Z,8.37
2023-04-21T06:45:03.244Z,7.97
2023-04-21T06:49:12.437Z,8.77
2023-04-21T06:53:22.130Z,8.67
2023-04-21T06:57:32.441Z,8.90
2023-04-21T07:01:41.380Z,9.07
2023-04-21T07:05:50.382Z,10.27
2023-04-21T07:09:59.362Z,10.93
2023-04-21T07:14:09.784Z,10.27
2023-04-21T07:18:18.703Z,11.57
2023-04-21T07:22:27.890Z,12.37
2023-04-21T07:26:36.856Z,12.33
2023-04-21T07:30:47.347Z,11.47
2023-04-21T07:34:56.291Z,12.53
2023-04-21T07:39:05.522Z,12.70
2023-04-21T07:43:14.528Z,13.70
2023-04-21T07:47:25.085Z,13.47
2023-04-21T07:51:34.261Z,13.50
2023-04-21T07:55:43.498Z,12.43
2023-04-21T07:59:52.430Z,13.90
2023-04-21T08:04:02.807Z,13.70
2023-04-21T08:08:11.868Z,13.90
2023-04-21T08:12:20.821Z,13.23
2023-04-21T08:16:30.771Z,12.77
2023-04-21T08:20:41.237Z,14.43
2023-04-21T08:24:50.115Z,12.30
2023-04-21T08:29:01.562Z,14.00
2023-04-21T08:33:14.066Z,12.77
2023-04-21T08:37:24.776Z,12.90
2023-04-21T08:41:33.712Z,12.83
2023-04-21T08:45:44.987Z,12.17
2023-04-21T08:49:54.645Z,13.10
2023-04-21T08:54:05.189Z,13.27
2023-04-21T08:58:14.420Z,13.90
2023-04-21T09:02:24.373Z,13.10
2023-04-21T09:06:43.936Z,13.53
2023-04-21T09:10:55.249Z,12.77
2023-04-21T09:15:07.134Z,11.77
2023-04-21T09:19:16.896Z,12.83
2023-04-21T09:23:25.935Z,13.23
2023-04-21T09:27:38.088Z,14.23
2023-04-21T09:31:47.169Z,14.23
2023-04-21T09:35:56.117Z,13.60
2023-04-21T09:40:05.689Z,14.27
2023-04-21T09:44:18.404Z,13.57
2023-04-21T09:48:32.596Z,12.93
2023-04-21T09:52:42.707Z,14.43
2023-04-21T09:56:54.803Z,13.70
2023-04-21T10:01:07.717Z,14.73
2023-04-21T10:05:17.048Z,13.27
2023-04-21T10:09:29.119Z,13.50
2023-04-21T10:13:39.557Z,12.07
2023-04-21T10:17:49.902Z,12.40
2023-04-21T10:21:59.060Z,11.10
2023-04-21T10:26:13.570Z,10.17
2023-04-21T10:30:26.384Z,9.97
2023-04-21T10:34:41.525Z,8.70
2023-04-21T10:38:57.974Z,10.17
2023-04-21T10:43:07.049Z,10.50
2023-04-21T10:47:25.953Z,10.10
2023-04-21T10:52:16.592Z,10.20
2023-04-21T10:56:26.567Z,10.13
2023-04-21T11:00:35.536Z,10.37
2023-04-21T11:04:49.175Z,11.73
2023-04-21T11:09:00.397Z,10.60
2023-04-21T11:13:10.067Z,12.23
2023-04-21T11:17:20.457Z,13.33
2023-04-21T11:21:32.022Z,12.93
2023-04-21T11:25:42.541Z,13.17
2023-04-21T11:29:52.669Z,13.30
2023-04-21T11:34:02.084Z,13.40
2023-04-21T11:38:13.170Z,14.07
2023-04-21T11:42:24.501Z,13.33
2023-04-21T11:46:33.901Z,12.47
2023-04-21T11:50:48.293Z,12.03
2023-04-21T11:54:59.110Z,11.97
2023-04-21T11:59:14.053Z,12.27
2023-04-21T12:03:24.117Z,12.37
2023-04-21T12:07:34.191Z,11.83
2023-04-21T12:11:43.224Z,12.00
2023-04-21T12:15:53.693Z,12.23
2023-04-21T12:20:07.133Z,11.17
2023-04-21T12:24:16.108Z,12.37
2023-04-21T12:28:25.067Z,12.27
2023-04-21T12:32:35.655Z,12.27
2023-04-21T12:36:45.075Z,13.60
2023-04-21T12:40:54.063Z,13.90
2023-04-21T12:45:02.920Z,13.27
2023-04-21T12:49:14.730Z,13.40
2023-04-21T12:53:23.762Z,13.30
2023-04-21T12:57:33.362Z,11.13
2023-04-21T13:01:42.881Z,9.90
2023-04-21T13:05:54.892Z,8.53
2023-04-21T13:10:05.229Z,8.00
2023-04-21T13:14:15.607Z,8.93
2023-04-21T13:18:24.639Z,9.93
2023-04-21T13:22:36.035Z,8.47
2023-04-21T13:26:45.087Z,9.27
2023-04-21T13:30:54.857Z,9.10
2023-04-21T13:35:08.999Z,8.77
2023-04-21T13:39:19.621Z,9.47
2023-04-21T13:43:28.648Z,9.13
2023-04-21T13:47:37.534Z,8.93
2023-04-21T13:51:46.496Z,8.63
2023-04-21T13:55:57.857Z,8.43
2023-04-21T14:00:11.259Z,9.47
2023-04-21T14:04:21.339Z,10.57
2023-04-21T14:08:30.660Z,8.90
2023-04-21T14:12:41.311Z,10.20
2023-04-21T14:16:50.732Z,10.40
2023-04-21T14:20:59.711Z,9.60
2023-04-21T14:25:09.191Z,8.53
2023-04-21T14:29:19.870Z,8.20
2023-04-21T14:33:29.371Z,8.57
2023-04-21T14:37:38.439Z,9.80
2023-04-21T14:41:47.553Z,8.73
2023-04-21T14:45:58.174Z,7.80
2023-04-21T14:50:08.413Z,7.30
2023-04-21T14:54:17.648Z,6.90
2023-04-21T14:58:26.758Z,5.97
2023-04-21T15:02:37.393Z,6.30
2023-04-21T15:06:46.473Z,4.90
2023-04-21T15:10:56.571Z,5.07
2023-04-21T15:15:05.938Z,4.67
2023-04-21T15:19:16.295Z,5.30
2023-04-21T15:23:25.257Z,5.57
2023-04-21T15:27:34.843Z,4.63
2023-04-21T15:31:43.821Z,4.87
2023-04-21T15:35:54.337Z,4.80
2023-04-21T15:40:04.961Z,4.03
2023-04-21T15:44:14.176Z,5.57
2023-04-21T15:48:23.462Z,4.67
2023-04-21T15:52:34.786Z,5.70
2023-04-21T15:56:43.857Z,5.87
2023-04-21T16:00:53.169Z,5.97
2023-04-21T16:05:02.461Z,6.30
2023-04-21T16:09:13.113Z,6.13
2023-04-21T16:13:22.075Z,6.17
2023-04-21T16:17:32.412Z,6.13
2023-04-21T16:21:42.375Z,7.90
2023-04-21T16:25:53.212Z,7.37
2023-04-21T16:30:02.334Z,7.67
2023-04-21T16:34:13.992Z,8.57
2023-04-21T16:38:22.992Z,7.60
2023-04-21T16:42:33.714Z,9.57
2023-04-21T16:46:42.676Z,10.93
2023-04-21T16:50:54.068Z,10.50
2023-04-21T16:55:03.030Z,10.90
2023-04-21T16:59:13.600Z,9.73
2023-04-21T17:03:22.790Z,10.47
2023-04-21T17:07:32.982Z,10.10
2023-04-21T17:11:42.057Z,11.73
2023-04-21T17:15:52.501Z,11.20
2023-04-21T17:20:01.593Z,12.73
2023-04-21T17:24:10.436Z,11.80
2023-04-21T17:28:19.376Z,9.87
2023-04-21T17:32:31.264Z,10.80
2023-04-21T17:36:44.516Z,11.60
2023-04-21T17:40:53.405Z,11.33
2023-04-21T17:45:05.427Z,10.80
2023-04-21T17:49:17.649Z,11.07
2023-04-21T17:53:26.739Z,9.93
2023-04-21T17:57:36.481Z,11.30
2023-04-21T18:01:45.471Z,8.60
2023-04-21T18:05:56.177Z,11.20
2023-04-21T18:10:05.535Z,10.17
2023-04-21T18:14:15.060Z,9.73
2023-04-21T18:18:24.068Z,9.43
2023-04-21T18:22:34.763Z,9.93
2023-04-21T18:26:43.858Z,10.97
2023-04-21T18:30:52.829Z,10.13
2023-04-21T18:35:02.402Z,10.00
2023-04-21T18:39:12.901Z,10.97
2023-04-21T18:43:21.868Z,9.37
2023-04-21T18:47:30.738Z,9.20
2023-04-21T18:51:39.884Z,8.87
2023-04-21T18:55:50.250Z,9.80
2023-04-21T19:00:00.469Z,9.67
2023-04-21T19:04:10.416Z,10.10
2023-04-21T19:08:30.094Z,9.87
2023-04-21T19:12:49.178Z,13.33
2023-04-21T19:16:58.167Z,12.93
2023-04-21T19:21:07.349Z,13.63
2023-04-21T19:25:17.777Z,14.00
2023-04-21T19:29:28.163Z,12.23
2023-04-21T19:33:37.323Z,12.97
2023-04-21T19:37:46.563Z,13.27
2023-04-21T19:41:57.767Z,14.80
2023-04-21T19:46:08.461Z,13.50
2023-04-21T19:50:17.540Z,14.23
2023-04-21T19:54:27.147Z,14.27
2023-04-21T19:58:40.566Z,14.00
2023-04-21T20:02:51.736Z,14.80
2023-04-21T20:07:00.928Z,14.97
2023-04-21T20:11:09.950Z,15.27
2023-04-21T20:15:19.041Z,15.17
2023-04-21T20:19:31.122Z,15.47
2023-04-21T20:23:39.988Z,16.40
2023-04-21T20:27:48.874Z,16.23
2023-04-21T20:31:58.582Z,16.33
2023-04-21T20:36:09.051Z,17.17
2023-04-21T20:40:18.977Z,18.33
2023-04-21T20:44:31.400Z,16.80
2023-04-21T20:48:40.466Z,17.37
2023-04-21T20:52:51.302Z,18.20
2023-04-21T20:57:00.365Z,17.73
2023-04-21T21:01:09.508Z,15.30
2023-04-21T21:05:18.469Z,16.30
2023-04-21T21:09:29.100Z,16.40
2023-04-21T21:13:38.089Z,16.07
2023-04-21T21:17:47.323Z,18.77
2023-04-21T21:21:56.392Z,17.70
2023-04-21T21:26:07.042Z,17.73
2023-04-21T21:30:16.415Z,18.03
2023-04-21T21:34:25.471Z,17.13
2023-04-21T21:38:34.709Z,18.83
2023-04-21T21:42:45.277Z,17.70
2023-04-21T21:46:54.197Z,19.33
2023-04-21T21:51:03.162Z,17.93
2023-04-21T21:55:12.058Z,17.60
2023-04-21T21:59:22.568Z,17.87
2023-04-21T22:03:31.703Z,15.77
2023-04-21T22:07:43.300Z,15.73
2023-04-21T22:11:52.187Z,15.77
2023-04-21T22:16:02.731Z,15.00
2023-04-21T22:20:13.393Z,13.67
2023-04-21T22:24:22.410Z,14.30
2023-04-21T22:28:31.373Z,13.53
2023-04-21T22:32:41.888Z,12.50
2023-04-21T22:36:50.830Z,12.57
2023-04-21T22:41:00.026Z,14.20
2023-04-21T22:45:10.068Z,15.07
2023-04-21T22:49:20.478Z,15.67
2023-04-21T22:53:29.385Z,13.97
2023-04-21T22:57:39.327Z,13.53
2023-04-21T23:01:48.150Z,13.30
2023-04-21T23:05:59.128Z,12.83
2023-04-21T23:10:08.598Z,12.90
2023-04-21T23:14:17.604Z,12.73
2023-04-21T23:18:26.446Z,11.93
2023-04-21T23:22:36.945Z,12.67
2023-04-21T23:26:45.776Z,11.47
2023-04-21T23:30:54.746Z,13.47
2023-04-21T23:35:03.746Z,13.83
2023-04-21T23:39:14.199Z,13.80
2023-04-21T23:43:23.101Z,13.40
2023-04-21T23:47:32.267Z,13.73
2023-04-21T23:51:41.280Z,12.40
2023-04-21T23:55:51.722Z,13.40
